OH71K EFHK-EFHK
Flight info
| Callsign | OH71K |
|---|---|
| Flight time | 0h 21m |
| Altitude | 2000 |
| Route | LILJA HAGIP |
| Aircraft | CC19/L-VG/C |
Departure
| Time | 2026-04-25 19:29 |
|---|---|
| Airport | Helsinki Vantaa Airport (EFHK) |
Arrival
| Time | 2026-04-25 19:51 |
|---|---|
| Airport | Helsinki Vantaa Airport (EFHK) |
| Time | Latitude | Longitude | Altitude | Speed | Heading |
|---|---|---|---|---|---|
| 2026-04-25 19:15 | 60.30892 | 24.97814 | 156 ft | 0 kts | 245° |
| 2026-04-25 19:25 | 60.30872 | 24.97826 | 156 ft | 11 kts | 117° |
| 2026-04-25 19:25 | 60.30912 | 24.97988 | 156 ft | 14 kts | 84° |
| 2026-04-25 19:26 | 60.30927 | 24.98155 | 156 ft | 11 kts | 62° |
| 2026-04-25 19:26 | 60.30956 | 24.98260 | 155 ft | 5 kts | 59° |
| 2026-04-25 19:26 | 60.30968 | 24.98308 | 155 ft | 0 kts | 63° |
| 2026-04-25 19:26 | 60.30969 | 24.98313 | 155 ft | 0 kts | 62° |
| 2026-04-25 19:28 | 60.31007 | 24.98416 | 155 ft | 21 kts | 27° |
| 2026-04-25 19:28 | 60.31176 | 24.98348 | 157 ft | 38 kts | 334° |
| 2026-04-25 19:29 | 60.31514 | 24.98021 | 231 ft | 63 kts | 334° |
| 2026-04-25 19:29 | 60.31965 | 24.97622 | 336 ft | 74 kts | 330° |
| 2026-04-25 19:29 | 60.32437 | 24.97446 | 634 ft | 73 kts | 24° |
| 2026-04-25 19:29 | 60.32406 | 24.98592 | 908 ft | 97 kts | 107° |
| 2026-04-25 19:30 | 60.32145 | 24.99928 | 1012 ft | 113 kts | 99° |
| 2026-04-25 19:30 | 60.31916 | 25.01509 | 1013 ft | 117 kts | 78° |
| 2026-04-25 19:30 | 60.31987 | 25.03143 | 1016 ft | 121 kts | 74° |
| 2026-04-25 19:30 | 60.32022 | 25.04846 | 1019 ft | 122 kts | 75° |
| 2026-04-25 19:31 | 60.32060 | 25.06562 | 1010 ft | 123 kts | 75° |
| 2026-04-25 19:31 | 60.32104 | 25.08292 | 1003 ft | 124 kts | 76° |
| 2026-04-25 19:31 | 60.32133 | 25.09916 | 1248 ft | 108 kts | 71° |
| 2026-04-25 19:31 | 60.32170 | 25.11358 | 1481 ft | 103 kts | 68° |
| 2026-04-25 19:32 | 60.32219 | 25.12904 | 1506 ft | 117 kts | 71° |
| 2026-04-25 19:32 | 60.32254 | 25.14598 | 1511 ft | 125 kts | 72° |
| 2026-04-25 19:32 | 60.32293 | 25.16365 | 1504 ft | 126 kts | 73° |
| 2026-04-25 19:32 | 60.32310 | 25.17522 | 1510 ft | 123 kts | 72° |
| 2026-04-25 19:33 | 60.32371 | 25.19854 | 1508 ft | 126 kts | 73° |
| 2026-04-25 19:33 | 60.32400 | 25.21620 | 1506 ft | 125 kts | 73° |
| 2026-04-25 19:33 | 60.32435 | 25.23380 | 1500 ft | 126 kts | 73° |
| 2026-04-25 19:33 | 60.32478 | 25.25123 | 1498 ft | 123 kts | 73° |
| 2026-04-25 19:34 | 60.32521 | 25.26857 | 1498 ft | 125 kts | 73° |
| 2026-04-25 19:34 | 60.32539 | 25.28597 | 1586 ft | 120 kts | 78° |
| 2026-04-25 19:34 | 60.32248 | 25.30172 | 1827 ft | 134 kts | 127° |
| 2026-04-25 19:34 | 60.31350 | 25.30729 | 1986 ft | 142 kts | 182° |
| 2026-04-25 19:35 | 60.30327 | 25.30773 | 1997 ft | 151 kts | 180° |
| 2026-04-25 19:35 | 60.29272 | 25.30832 | 2002 ft | 154 kts | 180° |
| 2026-04-25 19:35 | 60.28194 | 25.30886 | 2000 ft | 155 kts | 180° |
| 2026-04-25 19:35 | 60.27109 | 25.30934 | 1993 ft | 156 kts | 180° |
| 2026-04-25 19:36 | 60.26022 | 25.30987 | 1998 ft | 156 kts | 180° |
| 2026-04-25 19:36 | 60.24956 | 25.31042 | 2000 ft | 156 kts | 180° |
| 2026-04-25 19:36 | 60.23868 | 25.31103 | 1992 ft | 156 kts | 180° |
| 2026-04-25 19:36 | 60.22778 | 25.31170 | 1990 ft | 157 kts | 180° |
| 2026-04-25 19:37 | 60.21686 | 25.31239 | 1993 ft | 157 kts | 180° |
| 2026-04-25 19:37 | 60.20598 | 25.31309 | 1992 ft | 157 kts | 180° |
| 2026-04-25 19:37 | 60.19510 | 25.31384 | 1992 ft | 156 kts | 180° |
| 2026-04-25 19:37 | 60.18421 | 25.31461 | 1992 ft | 157 kts | 180° |
| 2026-04-25 19:38 | 60.17323 | 25.31539 | 1890 ft | 160 kts | 181° |
| 2026-04-25 19:38 | 60.16213 | 25.31632 | 1625 ft | 160 kts | 181° |
| 2026-04-25 19:38 | 60.15160 | 25.31318 | 1353 ft | 148 kts | 220° |
| 2026-04-25 19:38 | 60.14415 | 25.30155 | 1071 ft | 128 kts | 230° |
| 2026-04-25 19:39 | 60.13733 | 25.29109 | 763 ft | 119 kts | 229° |
| 2026-04-25 19:39 | 60.13308 | 25.27930 | 489 ft | 94 kts | 277° |
| 2026-04-25 19:39 | 60.13303 | 25.26782 | 407 ft | 78 kts | 279° |
| 2026-04-25 19:39 | 60.13261 | 25.25830 | 220 ft | 63 kts | 281° |
| 2026-04-25 19:40 | 60.13222 | 25.24959 | 23 ft | 57 kts | 282° |
| 2026-04-25 19:40 | 60.13199 | 25.24214 | 11 ft | 50 kts | 287° |
| 2026-04-25 19:40 | 60.13249 | 25.23784 | 11 ft | 18 kts | 323° |
| 2026-04-25 19:40 | 60.13316 | 25.23686 | 11 ft | 7 kts | 324° |
| 2026-04-25 19:41 | 60.13342 | 25.23646 | 11 ft | 3 kts | 324° |
| 2026-04-25 19:41 | 60.13358 | 25.23621 | 11 ft | 3 kts | 324° |
| 2026-04-25 19:41 | 60.13373 | 25.23598 | 11 ft | 3 kts | 324° |
| 2026-04-25 19:41 | 60.13382 | 25.23583 | 11 ft | 3 kts | 323° |
| 2026-04-25 19:42 | 60.13403 | 25.23550 | 11 ft | 3 kts | 323° |
| 2026-04-25 19:42 | 60.13417 | 25.23527 | 11 ft | 3 kts | 324° |
| 2026-04-25 19:42 | 60.13460 | 25.23457 | 11 ft | 27 kts | 321° |
| 2026-04-25 19:42 | 60.13678 | 25.23073 | 121 ft | 45 kts | 319° |
| 2026-04-25 19:43 | 60.13947 | 25.22560 | 212 ft | 57 kts | 316° |
| 2026-04-25 19:43 | 60.14248 | 25.21967 | 300 ft | 62 kts | 316° |
| 2026-04-25 19:43 | 60.14553 | 25.21356 | 385 ft | 68 kts | 316° |
| 2026-04-25 19:43 | 60.14878 | 25.20707 | 573 ft | 62 kts | 317° |
| 2026-04-25 19:44 | 60.15164 | 25.20093 | 784 ft | 59 kts | 317° |
| 2026-04-25 19:44 | 60.15413 | 25.19454 | 983 ft | 62 kts | 313° |
| 2026-04-25 19:44 | 60.15538 | 25.18464 | 993 ft | 78 kts | 300° |
| 2026-04-25 19:44 | 60.15814 | 25.17562 | 1005 ft | 80 kts | 305° |
| 2026-04-25 19:45 | 60.16026 | 25.16485 | 1010 ft | 84 kts | 302° |
| 2026-04-25 19:45 | 60.16223 | 25.15382 | 1006 ft | 85 kts | 302° |
| 2026-04-25 19:45 | 60.16422 | 25.14260 | 1004 ft | 85 kts | 301° |
| 2026-04-25 19:45 | 60.16623 | 25.13142 | 1004 ft | 85 kts | 302° |
| 2026-04-25 19:46 | 60.16825 | 25.12026 | 1004 ft | 85 kts | 302° |
| 2026-04-25 19:46 | 60.17029 | 25.10914 | 1007 ft | 85 kts | 302° |
| 2026-04-25 19:46 | 60.17232 | 25.09805 | 1006 ft | 84 kts | 302° |
| 2026-04-25 19:46 | 60.17434 | 25.08700 | 1006 ft | 84 kts | 302° |
| 2026-04-25 19:47 | 60.17635 | 25.07604 | 1006 ft | 84 kts | 302° |
| 2026-04-25 19:47 | 60.17836 | 25.06510 | 1006 ft | 83 kts | 301° |
| 2026-04-25 19:47 | 60.18035 | 25.05419 | 1006 ft | 83 kts | 302° |
| 2026-04-25 19:47 | 60.18235 | 25.04325 | 1005 ft | 84 kts | 302° |
| 2026-04-25 19:48 | 60.18440 | 25.03228 | 1004 ft | 84 kts | 301° |
| 2026-04-25 19:48 | 60.18641 | 25.02126 | 1001 ft | 84 kts | 302° |
| 2026-04-25 19:48 | 60.18840 | 25.01037 | 1004 ft | 85 kts | 301° |
| 2026-04-25 19:48 | 60.19050 | 24.99914 | 1005 ft | 86 kts | 302° |
| 2026-04-25 19:49 | 60.19251 | 24.98793 | 1006 ft | 85 kts | 302° |
| 2026-04-25 19:49 | 60.19385 | 24.98057 | 1002 ft | 85 kts | 302° |
| 2026-04-25 19:49 | 60.19623 | 24.96722 | 986 ft | 66 kts | 304° |
| 2026-04-25 19:49 | 60.19780 | 24.95864 | 994 ft | 66 kts | 304° |
| 2026-04-25 19:50 | 60.20111 | 24.94070 | 995 ft | 65 kts | 304° |
| 2026-04-25 19:50 | 60.20261 | 24.93251 | 991 ft | 59 kts | 305° |
| 2026-04-25 19:50 | 60.20395 | 24.92506 | 994 ft | 56 kts | 305° |
| 2026-04-25 19:51 | 60.20527 | 24.91788 | 992 ft | 53 kts | 307° |
| 2026-04-25 19:51 | 60.20663 | 24.91117 | 993 ft | 49 kts | 314° |
| 2026-04-25 19:51 | 60.20883 | 24.90643 | 980 ft | 45 kts | 329° |
| 2026-04-25 19:51 | 60.21150 | 24.90339 | 1002 ft | 45 kts | 342° |
| 2026-04-25 19:52 | 60.21448 | 24.90123 | 1002 ft | 44 kts | 336° |
| 2026-04-25 19:52 | 60.21732 | 24.89884 | 993 ft | 44 kts | 338° |
| 2026-04-25 19:52 | 60.22008 | 24.89648 | 1000 ft | 44 kts | 338° |
| 2026-04-25 19:52 | 60.22349 | 24.89356 | 1061 ft | 60 kts | 338° |
| 2026-04-25 19:53 | 60.22753 | 24.89012 | 1120 ft | 66 kts | 338° |
| 2026-04-25 19:53 | 60.23209 | 24.88613 | 1046 ft | 77 kts | 338° |
| 2026-04-25 19:53 | 60.23714 | 24.88191 | 1011 ft | 78 kts | 338° |
| 2026-04-25 19:53 | 60.24210 | 24.87780 | 1009 ft | 78 kts | 338° |
| 2026-04-25 19:54 | 60.24700 | 24.87363 | 1006 ft | 77 kts | 338° |
| 2026-04-25 19:54 | 60.25193 | 24.86953 | 1002 ft | 77 kts | 338° |
| 2026-04-25 19:54 | 60.25687 | 24.86544 | 1018 ft | 77 kts | 338° |
| 2026-04-25 19:54 | 60.26023 | 24.86262 | 1007 ft | 77 kts | 338° |
| 2026-04-25 19:55 | 60.26675 | 24.85708 | 1006 ft | 76 kts | 338° |
| 2026-04-25 19:55 | 60.27104 | 24.85341 | 968 ft | 55 kts | 338° |
| 2026-04-25 19:55 | 60.27440 | 24.85085 | 842 ft | 53 kts | 339° |
| 2026-04-25 19:55 | 60.27840 | 24.84856 | 887 ft | 64 kts | 356° |
| 2026-04-25 19:56 | 60.28216 | 24.85426 | 1036 ft | 61 kts | 11° |
| 2026-04-25 19:56 | 60.28625 | 24.85704 | 1035 ft | 64 kts | 10° |
| 2026-04-25 19:56 | 60.29035 | 24.86131 | 1046 ft | 69 kts | 19° |
| 2026-04-25 19:56 | 60.29399 | 24.86668 | 1017 ft | 62 kts | 32° |
| 2026-04-25 19:57 | 60.29639 | 24.87290 | 999 ft | 49 kts | 29° |
| 2026-04-25 19:57 | 60.29892 | 24.87751 | 1026 ft | 49 kts | 9° |
| 2026-04-25 19:57 | 60.30188 | 24.88320 | 1049 ft | 63 kts | 21° |
| 2026-04-25 19:57 | 60.30520 | 24.88909 | 961 ft | 66 kts | 23° |
| 2026-04-25 19:58 | 60.30864 | 24.89560 | 774 ft | 68 kts | 28° |
| 2026-04-25 19:58 | 60.31205 | 24.90258 | 405 ft | 71 kts | 27° |
| 2026-04-25 19:58 | 60.31547 | 24.90968 | 170 ft | 65 kts | 30° |
| 2026-04-25 19:58 | 60.31810 | 24.91540 | 275 ft | 54 kts | 29° |
| 2026-04-25 19:59 | 60.32088 | 24.92135 | 447 ft | 58 kts | 31° |
| 2026-04-25 19:59 | 60.32326 | 24.92738 | 683 ft | 51 kts | 28° |
| 2026-04-25 19:59 | 60.32522 | 24.93288 | 919 ft | 44 kts | 30° |
| 2026-04-25 19:59 | 60.32725 | 24.93556 | 1035 ft | 45 kts | 320° |
| 2026-04-25 20:00 | 60.32836 | 24.92872 | 1217 ft | 48 kts | 320° |
| 2026-04-25 20:00 | 60.32899 | 24.92690 | 1283 ft | 47 kts | 323° |
| 2026-04-25 20:00 | 60.33225 | 24.91668 | 1296 ft | 50 kts | 320° |
| 2026-04-25 20:00 | 60.33184 | 24.90834 | 1123 ft | 89 kts | 248° |
| 2026-04-25 20:01 | 60.32424 | 24.89095 | 1022 ft | 77 kts | 250° |
| 2026-04-25 20:01 | 60.32075 | 24.88326 | 1013 ft | 72 kts | 250° |
| 2026-04-25 20:01 | 60.31802 | 24.87556 | 1036 ft | 72 kts | 262° |
| 2026-04-25 20:02 | 60.31514 | 24.86638 | 1042 ft | 80 kts | 261° |
| 2026-04-25 20:02 | 60.31229 | 24.85655 | 1042 ft | 82 kts | 261° |
| 2026-04-25 20:02 | 60.30943 | 24.84623 | 1042 ft | 84 kts | 259° |
| 2026-04-25 20:02 | 60.30393 | 24.83989 | 1014 ft | 109 kts | 179° |
| 2026-04-25 20:03 | 60.29764 | 24.84736 | 1032 ft | 106 kts | 144° |
| 2026-04-25 20:03 | 60.29146 | 24.85568 | 1047 ft | 107 kts | 140° |
| 2026-04-25 20:03 | 60.28544 | 24.86478 | 1030 ft | 106 kts | 123° |
| 2026-04-25 20:03 | 60.28436 | 24.87682 | 1038 ft | 81 kts | 63° |
| 2026-04-25 20:04 | 60.28692 | 24.88521 | 1031 ft | 69 kts | 34° |
| 2026-04-25 20:04 | 60.29019 | 24.89298 | 994 ft | 75 kts | 30° |
| 2026-04-25 20:04 | 60.29401 | 24.89950 | 953 ft | 71 kts | 21° |
| 2026-04-25 20:04 | 60.29768 | 24.90670 | 827 ft | 72 kts | 32° |
| 2026-04-25 20:05 | 60.30095 | 24.91370 | 658 ft | 67 kts | 33° |
| 2026-04-25 20:05 | 60.30407 | 24.92085 | 509 ft | 74 kts | 36° |
| 2026-04-25 20:05 | 60.30752 | 24.92877 | 401 ft | 72 kts | 31° |
| 2026-04-25 20:05 | 60.31091 | 24.93575 | 261 ft | 71 kts | 32° |
| 2026-04-25 20:06 | 60.31394 | 24.94239 | 191 ft | 62 kts | 30° |
| 2026-04-25 20:06 | 60.31673 | 24.94853 | 167 ft | 55 kts | 38° |
| 2026-04-25 20:06 | 60.31906 | 24.95246 | 160 ft | 20 kts | 43° |
| 2026-04-25 20:06 | 60.31988 | 24.95435 | 159 ft | 1 kts | 8° |
| 2026-04-25 20:07 | 60.32013 | 24.95510 | 159 ft | 14 kts | 55° |
| 2026-04-25 20:07 | 60.32093 | 24.95726 | 160 ft | 24 kts | 62° |
| 2026-04-25 20:07 | 60.32197 | 24.95953 | 162 ft | 19 kts | 41° |
| 2026-04-25 20:07 | 60.32270 | 24.96145 | 162 ft | 17 kts | 51° |
| 2026-04-25 20:08 | 60.32354 | 24.96338 | 161 ft | 19 kts | 38° |
| 2026-04-25 20:08 | 60.32440 | 24.96544 | 161 ft | 20 kts | 46° |
| 2026-04-25 20:08 | 60.32433 | 24.96727 | 162 ft | 14 kts | 155° |
| 2026-04-25 20:08 | 60.32250 | 24.96901 | 161 ft | 39 kts | 147° |
| 2026-04-25 20:09 | 60.32050 | 24.97149 | 160 ft | 17 kts | 131° |